Afton, Oklahoma
Current Conditions -  °F | °C
As of 5:35 PM on Saturday 20 Dec 2014 (Local Time) from KGMJ Reporting Station
Overcast Overcast  
Wind Chill: 40°   Ceiling: 2400
Heat Index: 45°   Visibility: 10mi
Dew Point: 37°   Wind: 8mph
Humidity: 76%   Direction: 200°SSW
Pressure: 30.2"   Gusts: NA
Location:  36.69°N, 94.96°W
Report Text: KGMJ 202335Z AUTO 20007KT 10SM OVC024 07/03 A3020 RMK AO2
Loading
Personal Weather Stations






























Interactive Weather Map New forecast layout! Learn more

10-Day Weather Forecast

Advertisements
Track Severe Weather on mobile